sensor_id;sensor_type;location;lat;lon;timestamp;P1;durP1;ratioP1;P2;durP2;ratioP2
23632;SDS011;11993;48.748;9.166;2023-03-01T00:01:09;24.60;;;14.25;;
23632;SDS011;11993;48.748;9.166;2023-03-01T00:03:36;23.02;;;14.18;;
23632;SDS011;11993;48.748;9.166;2023-03-01T00:06:02;25.35;;;15.52;;
23632;SDS011;11993;48.748;9.166;2023-03-01T00:08:28;26.60;;;14.10;;
23632;SDS011;11993;48.748;9.166;2023-03-01T00:11:09;23.35;;;13.75;;
23632;SDS011;11993;48.748;9.166;2023-03-01T00:13:39;22.08;;;13.75;;
23632;SDS011;11993;48.748;9.166;2023-03-01T00:16:07;21.05;;;12.90;;
23632;SDS011;11993;48.748;9.166;2023-03-01T00:18:34;23.55;;;12.93;;
23632;SDS011;11993;48.748;9.166;2023-03-01T00:20:59;23.20;;;13.18;;
23632;SDS011;11993;48.748;9.166;2023-03-01T00:23:25;23.95;;;13.40;;
23632;SDS011;11993;48.748;9.166;2023-03-01T00:25:51;20.92;;;13.98;;
23632;SDS011;11993;48.748;9.166;2023-03-01T00:28:17;24.27;;;13.95;;
23632;SDS011;11993;48.748;9.166;2023-03-01T00:30:44;24.15;;;14.32;;
23632;SDS011;11993;48.748;9.166;2023-03-01T00:33:10;21.52;;;12.88;;
23632;SDS011;11993;48.748;9.166;2023-03-01T00:35:35;24.13;;;14.55;;
23632;SDS011;11993;48.748;9.166;2023-03-01T00:38:02;20.80;;;12.63;;
23632;SDS011;11993;48.748;9.166;2023-03-01T00:40:29;24.30;;;14.07;;
23632;SDS011;11993;48.748;9.166;2023-03-01T00:42:56;27.13;;;14.57;;
23632;SDS011;11993;48.748;9.166;2023-03-01T00:45:22;23.90;;;13.38;;
23632;SDS011;11993;48.748;9.166;2023-03-01T00:47:48;21.75;;;14.50;;
23632;SDS011;11993;48.748;9.166;2023-03-01T00:50:14;22.95;;;13.85;;
23632;SDS011;11993;48.748;9.166;2023-03-01T00:52:40;20.77;;;12.88;;
23632;SDS011;11993;48.748;9.166;2023-03-01T00:55:06;22.33;;;14.27;;
23632;SDS011;11993;48.748;9.166;2023-03-01T00:57:32;21.40;;;13.10;;
23632;SDS011;11993;48.748;9.166;2023-03-01T00:59:58;21.73;;;13.70;;
23632;SDS011;11993;48.748;9.166;2023-03-01T01:02:24;21.55;;;13.13;;
23632;SDS011;11993;48.748;9.166;2023-03-01T01:04:49;21.10;;;12.85;;
23632;SDS011;11993;48.748;9.166;2023-03-01T01:07:15;22.60;;;14.20;;
23632;SDS011;11993;48.748;9.166;2023-03-01T01:09:41;21.92;;;13.23;;
23632;SDS011;11993;48.748;9.166;2023-03-01T01:12:07;24.23;;;14.25;;
23632;SDS011;11993;48.748;9.166;2023-03-01T01:14:33;22.75;;;13.23;;
23632;SDS011;11993;48.748;9.166;2023-03-01T01:16:59;20.90;;;13.23;;
23632;SDS011;11993;48.748;9.166;2023-03-01T01:19:24;24.30;;;14.10;;
23632;SDS011;11993;48.748;9.166;2023-03-01T01:21:51;26.58;;;14.65;;
23632;SDS011;11993;48.748;9.166;2023-03-01T01:24:17;21.58;;;13.80;;
23632;SDS011;11993;48.748;9.166;2023-03-01T01:26:43;23.90;;;14.15;;
23632;SDS011;11993;48.748;9.166;2023-03-01T01:29:09;21.42;;;13.68;;
23632;SDS011;11993;48.748;9.166;2023-03-01T01:31:35;22.17;;;13.45;;
23632;SDS011;11993;48.748;9.166;2023-03-01T01:34:03;21.60;;;13.48;;
23632;SDS011;11993;48.748;9.166;2023-03-01T01:36:31;24.60;;;14.40;;
23632;SDS011;11993;48.748;9.166;2023-03-01T01:38:57;23.90;;;14.32;;
23632;SDS011;11993;48.748;9.166;2023-03-01T01:41:25;22.30;;;13.27;;
23632;SDS011;11993;48.748;9.166;2023-03-01T01:47:20;21.63;;;13.57;;
23632;SDS011;11993;48.748;9.166;2023-03-01T01:49:33;27.92;;;14.02;;
23632;SDS011;11993;48.748;9.166;2023-03-01T01:52:18;27.20;;;14.23;;
23632;SDS011;11993;48.748;9.166;2023-03-01T01:54:51;21.77;;;13.95;;
23632;SDS011;11993;48.748;9.166;2023-03-01T01:57:29;26.80;;;14.55;;
23632;SDS011;11993;48.748;9.166;2023-03-01T02:00:05;22.00;;;14.40;;
23632;SDS011;11993;48.748;9.166;2023-03-01T02:02:33;23.80;;;14.82;;
23632;SDS011;11993;48.748;9.166;2023-03-01T02:05:03;23.85;;;14.05;;
23632;SDS011;11993;48.748;9.166;2023-03-01T02:07:48;24.20;;;15.02;;
23632;SDS011;11993;48.748;9.166;2023-03-01T02:10:14;24.67;;;13.35;;
23632;SDS011;11993;48.748;9.166;2023-03-01T02:12:40;22.00;;;14.43;;
23632;SDS011;11993;48.748;9.166;2023-03-01T02:15:07;23.45;;;14.25;;
23632;SDS011;11993;48.748;9.166;2023-03-01T02:17:32;24.10;;;13.93;;
23632;SDS011;11993;48.748;9.166;2023-03-01T02:20:13;30.95;;;15.07;;
23632;SDS011;11993;48.748;9.166;2023-03-01T02:22:46;27.27;;;14.63;;
23632;SDS011;11993;48.748;9.166;2023-03-01T02:30:32;22.85;;;14.07;;
23632;SDS011;11993;48.748;9.166;2023-03-01T02:32:58;25.23;;;14.85;;
23632;SDS011;11993;48.748;9.166;2023-03-01T02:35:37;21.98;;;13.95;;
23632;SDS011;11993;48.748;9.166;2023-03-01T02:38:06;26.08;;;14.63;;
23632;SDS011;11993;48.748;9.166;2023-03-01T02:40:33;24.88;;;15.02;;
23632;SDS011;11993;48.748;9.166;2023-03-01T02:43:00;27.17;;;16.38;;
23632;SDS011;11993;48.748;9.166;2023-03-01T02:45:30;25.15;;;15.40;;
23632;SDS011;11993;48.748;9.166;2023-03-01T02:47:56;26.35;;;15.63;;
23632;SDS011;11993;48.748;9.166;2023-03-01T02:50:25;27.80;;;15.73;;
23632;SDS011;11993;48.748;9.166;2023-03-01T02:53:15;23.55;;;14.80;;
23632;SDS011;11993;48.748;9.166;2023-03-01T02:55:48;24.45;;;14.90;;
23632;SDS011;11993;48.748;9.166;2023-03-01T02:58:14;23.30;;;14.90;;
23632;SDS011;11993;48.748;9.166;2023-03-01T03:00:41;25.63;;;14.95;;
23632;SDS011;11993;48.748;9.166;2023-03-01T03:03:19;28.38;;;17.05;;
23632;SDS011;11993;48.748;9.166;2023-03-01T03:05:46;25.23;;;14.45;;
23632;SDS011;11993;48.748;9.166;2023-03-01T03:08:13;26.00;;;15.50;;
23632;SDS011;11993;48.748;9.166;2023-03-01T03:10:41;23.75;;;15.50;;
23632;SDS011;11993;48.748;9.166;2023-03-01T03:13:11;27.05;;;16.13;;
23632;SDS011;11993;48.748;9.166;2023-03-01T03:15:38;26.90;;;16.25;;
23632;SDS011;11993;48.748;9.166;2023-03-01T03:18:07;26.58;;;15.85;;
23632;SDS011;11993;48.748;9.166;2023-03-01T03:20:34;23.80;;;14.25;;
23632;SDS011;11993;48.748;9.166;2023-03-01T03:23:00;24.40;;;15.25;;
23632;SDS011;11993;48.748;9.166;2023-03-01T03:25:27;24.77;;;15.38;;
23632;SDS011;11993;48.748;9.166;2023-03-01T03:27:53;27.45;;;15.98;;
23632;SDS011;11993;48.748;9.166;2023-03-01T03:30:22;28.75;;;17.00;;
23632;SDS011;11993;48.748;9.166;2023-03-01T03:32:50;24.88;;;15.50;;
23632;SDS011;11993;48.748;9.166;2023-03-01T03:35:22;27.40;;;15.80;;
23632;SDS011;11993;48.748;9.166;2023-03-01T03:37:50;25.15;;;15.50;;
23632;SDS011;11993;48.748;9.166;2023-03-01T03:40:36;25.27;;;15.50;;
23632;SDS011;11993;48.748;9.166;2023-03-01T03:43:06;27.15;;;14.70;;
23632;SDS011;11993;48.748;9.166;2023-03-01T03:45:37;24.05;;;15.20;;
23632;SDS011;11993;48.748;9.166;2023-03-01T03:48:03;29.40;;;15.93;;
23632;SDS011;11993;48.748;9.166;2023-03-01T03:50:31;28.75;;;16.58;;
23632;SDS011;11993;48.748;9.166;2023-03-01T03:52:57;25.63;;;15.32;;
23632;SDS011;11993;48.748;9.166;2023-03-01T03:55:25;23.85;;;16.45;;
23632;SDS011;11993;48.748;9.166;2023-03-01T03:57:55;26.05;;;15.40;;
23632;SDS011;11993;48.748;9.166;2023-03-01T04:00:23;22.42;;;14.80;;
23632;SDS011;11993;48.748;9.166;2023-03-01T04:02:49;27.48;;;16.05;;
23632;SDS011;11993;48.748;9.166;2023-03-01T04:05:16;26.48;;;16.15;;
23632;SDS011;11993;48.748;9.166;2023-03-01T04:07:44;23.40;;;14.90;;
23632;SDS011;11993;48.748;9.166;2023-03-01T04:10:17;26.40;;;16.60;;
23632;SDS011;11993;48.748;9.166;2023-03-01T04:12:43;25.60;;;14.52;;
23632;SDS011;11993;48.748;9.166;2023-03-01T04:15:09;27.13;;;16.33;;
23632;SDS011;11993;48.748;9.166;2023-03-01T04:17:45;26.05;;;16.02;;
23632;SDS011;11993;48.748;9.166;2023-03-01T04:20:13;32.65;;;17.42;;
23632;SDS011;11993;48.748;9.166;2023-03-01T04:22:49;24.98;;;15.55;;
23632;SDS011;11993;48.748;9.166;2023-03-01T04:25:15;25.42;;;15.80;;
23632;SDS011;11993;48.748;9.166;2023-03-01T04:27:41;22.83;;;14.98;;
23632;SDS011;11993;48.748;9.166;2023-03-01T04:30:07;27.95;;;16.73;;
23632;SDS011;11993;48.748;9.166;2023-03-01T04:32:33;28.75;;;17.15;;
23632;SDS011;11993;48.748;9.166;2023-03-01T04:34:59;25.85;;;15.55;;
23632;SDS011;11993;48.748;9.166;2023-03-01T04:37:25;26.63;;;15.88;;
23632;SDS011;11993;48.748;9.166;2023-03-01T04:39:51;24.15;;;14.88;;
23632;SDS011;11993;48.748;9.166;2023-03-01T04:42:17;25.92;;;15.40;;
23632;SDS011;11993;48.748;9.166;2023-03-01T04:44:43;27.70;;;16.25;;
23632;SDS011;11993;48.748;9.166;2023-03-01T04:47:09;32.53;;;17.65;;
23632;SDS011;11993;48.748;9.166;2023-03-01T04:49:35;29.00;;;16.83;;
23632;SDS011;11993;48.748;9.166;2023-03-01T04:52:00;26.05;;;16.52;;
23632;SDS011;11993;48.748;9.166;2023-03-01T04:54:29;23.20;;;15.52;;
23632;SDS011;11993;48.748;9.166;2023-03-01T04:56:55;26.80;;;16.00;;
23632;SDS011;11993;48.748;9.166;2023-03-01T04:59:21;27.40;;;17.45;;
23632;SDS011;11993;48.748;9.166;2023-03-01T05:01:50;26.25;;;15.77;;
23632;SDS011;11993;48.748;9.166;2023-03-01T05:04:17;27.75;;;16.30;;
23632;SDS011;11993;48.748;9.166;2023-03-01T05:06:42;25.65;;;16.42;;
23632;SDS011;11993;48.748;9.166;2023-03-01T05:09:08;28.10;;;17.05;;
23632;SDS011;11993;48.748;9.166;2023-03-01T05:11:33;27.80;;;16.73;;
23632;SDS011;11993;48.748;9.166;2023-03-01T05:14:04;25.33;;;16.17;;
23632;SDS011;11993;48.748;9.166;2023-03-01T05:16:30;29.60;;;16.35;;
23632;SDS011;11993;48.748;9.166;2023-03-01T05:18:56;29.38;;;17.67;;
23632;SDS011;11993;48.748;9.166;2023-03-01T05:21:21;27.38;;;17.10;;
23632;SDS011;11993;48.748;9.166;2023-03-01T05:23:47;24.92;;;16.17;;
23632;SDS011;11993;48.748;9.166;2023-03-01T05:26:13;27.45;;;16.70;;
23632;SDS011;11993;48.748;9.166;2023-03-01T05:28:39;31.08;;;16.25;;
23632;SDS011;11993;48.748;9.166;2023-03-01T05:31:05;29.65;;;17.02;;
23632;SDS011;11993;48.748;9.166;2023-03-01T05:33:37;27.88;;;16.55;;
23632;SDS011;11993;48.748;9.166;2023-03-01T05:36:03;26.52;;;17.02;;
23632;SDS011;11993;48.748;9.166;2023-03-01T05:38:30;23.92;;;15.82;;
23632;SDS011;11993;48.748;9.166;2023-03-01T05:40:55;27.30;;;16.13;;
23632;SDS011;11993;48.748;9.166;2023-03-01T05:46:45;25.27;;;16.38;;
23632;SDS011;11993;48.748;9.166;2023-03-01T05:49:12;25.35;;;16.58;;
23632;SDS011;11993;48.748;9.166;2023-03-01T05:51:41;69.68;;;35.65;;
23632;SDS011;11993;48.748;9.166;2023-03-01T05:54:08;36.90;;;20.92;;
23632;SDS011;11993;48.748;9.166;2023-03-01T05:56:35;27.67;;;17.90;;
23632;SDS011;11993;48.748;9.166;2023-03-01T05:59:01;27.35;;;16.98;;
23632;SDS011;11993;48.748;9.166;2023-03-01T06:01:29;25.30;;;16.20;;
23632;SDS011;11993;48.748;9.166;2023-03-01T06:03:56;26.92;;;16.25;;
23632;SDS011;11993;48.748;9.166;2023-03-01T06:06:24;32.42;;;18.17;;
23632;SDS011;11993;48.748;9.166;2023-03-01T06:08:50;26.50;;;16.90;;
23632;SDS011;11993;48.748;9.166;2023-03-01T06:11:16;27.05;;;17.85;;
23632;SDS011;11993;48.748;9.166;2023-03-01T06:13:45;27.75;;;16.92;;
23632;SDS011;11993;48.748;9.166;2023-03-01T06:16:12;28.88;;;18.08;;
23632;SDS011;11993;48.748;9.166;2023-03-01T06:18:40;53.92;;;29.80;;
23632;SDS011;11993;48.748;9.166;2023-03-01T06:21:06;35.88;;;22.65;;
23632;SDS011;11993;48.748;9.166;2023-03-01T06:23:33;31.48;;;17.75;;
23632;SDS011;11993;48.748;9.166;2023-03-01T06:26:04;30.52;;;18.65;;
23632;SDS011;11993;48.748;9.166;2023-03-01T06:28:30;29.00;;;17.23;;
23632;SDS011;11993;48.748;9.166;2023-03-01T06:30:56;24.73;;;15.95;;
23632;SDS011;11993;48.748;9.166;2023-03-01T06:33:21;29.05;;;16.73;;
23632;SDS011;11993;48.748;9.166;2023-03-01T06:35:49;44.15;;;22.98;;
23632;SDS011;11993;48.748;9.166;2023-03-01T06:38:15;34.97;;;20.00;;
23632;SDS011;11993;48.748;9.166;2023-03-01T06:40:42;33.00;;;19.33;;
23632;SDS011;11993;48.748;9.166;2023-03-01T06:43:07;28.00;;;17.40;;
23632;SDS011;11993;48.748;9.166;2023-03-01T06:45:33;29.77;;;17.17;;
23632;SDS011;11993;48.748;9.166;2023-03-01T06:48:02;32.05;;;19.50;;
23632;SDS011;11993;48.748;9.166;2023-03-01T06:50:31;29.42;;;16.73;;
23632;SDS011;11993;48.748;9.166;2023-03-01T06:52:57;27.75;;;18.23;;
23632;SDS011;11993;48.748;9.166;2023-03-01T06:55:23;30.52;;;18.42;;
23632;SDS011;11993;48.748;9.166;2023-03-01T06:57:53;29.00;;;17.67;;
23632;SDS011;11993;48.748;9.166;2023-03-01T07:00:26;27.90;;;17.77;;
23632;SDS011;11993;48.748;9.166;2023-03-01T07:02:52;30.05;;;17.60;;
23632;SDS011;11993;48.748;9.166;2023-03-01T07:05:17;26.65;;;16.98;;
23632;SDS011;11993;48.748;9.166;2023-03-01T07:07:43;30.30;;;16.90;;
23632;SDS011;11993;48.748;9.166;2023-03-01T07:10:09;27.67;;;16.88;;
23632;SDS011;11993;48.748;9.166;2023-03-01T07:12:36;26.50;;;17.67;;
23632;SDS011;11993;48.748;9.166;2023-03-01T07:15:01;28.02;;;16.38;;
23632;SDS011;11993;48.748;9.166;2023-03-01T07:17:28;27.92;;;18.90;;
23632;SDS011;11993;48.748;9.166;2023-03-01T07:19:53;29.10;;;17.38;;
23632;SDS011;11993;48.748;9.166;2023-03-01T07:22:19;28.67;;;16.80;;
23632;SDS011;11993;48.748;9.166;2023-03-01T07:24:45;25.33;;;16.73;;
23632;SDS011;11993;48.748;9.166;2023-03-01T07:27:11;26.30;;;17.92;;
23632;SDS011;11993;48.748;9.166;2023-03-01T07:29:38;28.98;;;17.95;;
23632;SDS011;11993;48.748;9.166;2023-03-01T07:32:04;32.90;;;18.52;;
23632;SDS011;11993;48.748;9.166;2023-03-01T07:34:30;24.42;;;17.05;;
23632;SDS011;11993;48.748;9.166;2023-03-01T07:36:56;31.13;;;17.05;;
23632;SDS011;11993;48.748;9.166;2023-03-01T07:39:22;27.77;;;17.42;;
23632;SDS011;11993;48.748;9.166;2023-03-01T07:41:50;30.58;;;18.67;;
23632;SDS011;11993;48.748;9.166;2023-03-01T07:44:16;29.20;;;17.48;;
23632;SDS011;11993;48.748;9.166;2023-03-01T07:46:42;28.40;;;18.33;;
23632;SDS011;11993;48.748;9.166;2023-03-01T07:49:08;27.95;;;17.63;;
23632;SDS011;11993;48.748;9.166;2023-03-01T07:51:33;27.42;;;17.42;;
23632;SDS011;11993;48.748;9.166;2023-03-01T07:53:59;25.27;;;17.50;;
23632;SDS011;11993;48.748;9.166;2023-03-01T07:56:24;27.38;;;16.65;;
23632;SDS011;11993;48.748;9.166;2023-03-01T07:58:50;28.95;;;17.95;;
23632;SDS011;11993;48.748;9.166;2023-03-01T08:01:17;27.27;;;16.63;;
23632;SDS011;11993;48.748;9.166;2023-03-01T08:03:46;27.25;;;17.20;;
23632;SDS011;11993;48.748;9.166;2023-03-01T08:06:13;26.00;;;17.10;;
23632;SDS011;11993;48.748;9.166;2023-03-01T08:08:41;28.50;;;17.45;;
23632;SDS011;11993;48.748;9.166;2023-03-01T08:11:07;29.42;;;17.65;;
23632;SDS011;11993;48.748;9.166;2023-03-01T08:13:35;26.25;;;16.80;;
23632;SDS011;11993;48.748;9.166;2023-03-01T08:16:07;24.55;;;16.55;;
23632;SDS011;11993;48.748;9.166;2023-03-01T08:18:34;29.08;;;18.08;;
23632;SDS011;11993;48.748;9.166;2023-03-01T08:21:04;28.27;;;17.30;;
23632;SDS011;11993;48.748;9.166;2023-03-01T08:23:31;28.15;;;18.52;;
23632;SDS011;11993;48.748;9.166;2023-03-01T08:26:04;37.47;;;18.08;;
23632;SDS011;11993;48.748;9.166;2023-03-01T08:28:40;31.70;;;17.50;;
23632;SDS011;11993;48.748;9.166;2023-03-01T08:31:13;31.40;;;17.75;;
23632;SDS011;11993;48.748;9.166;2023-03-01T08:33:47;33.30;;;19.00;;
23632;SDS011;11993;48.748;9.166;2023-03-01T08:36:15;31.25;;;17.58;;
23632;SDS011;11993;48.748;9.166;2023-03-01T08:38:42;28.55;;;18.08;;
23632;SDS011;11993;48.748;9.166;2023-03-01T08:41:07;30.08;;;18.40;;
23632;SDS011;11993;48.748;9.166;2023-03-01T08:43:33;25.58;;;17.40;;
23632;SDS011;11993;48.748;9.166;2023-03-01T08:45:59;34.40;;;19.23;;
23632;SDS011;11993;48.748;9.166;2023-03-01T08:48:27;29.10;;;17.90;;
23632;SDS011;11993;48.748;9.166;2023-03-01T08:50:53;35.65;;;17.48;;
23632;SDS011;11993;48.748;9.166;2023-03-01T08:53:18;28.15;;;17.90;;
23632;SDS011;11993;48.748;9.166;2023-03-01T08:55:44;30.60;;;19.17;;
23632;SDS011;11993;48.748;9.166;2023-03-01T08:58:09;32.97;;;19.30;;
23632;SDS011;11993;48.748;9.166;2023-03-01T09:00:35;25.67;;;17.27;;
23632;SDS011;11993;48.748;9.166;2023-03-01T09:03:00;27.30;;;18.33;;
23632;SDS011;11993;48.748;9.166;2023-03-01T09:05:26;29.80;;;17.98;;
23632;SDS011;11993;48.748;9.166;2023-03-01T09:07:52;29.45;;;18.65;;
23632;SDS011;11993;48.748;9.166;2023-03-01T09:10:17;30.98;;;17.45;;
23632;SDS011;11993;48.748;9.166;2023-03-01T09:12:43;28.13;;;17.63;;
23632;SDS011;11993;48.748;9.166;2023-03-01T09:15:09;32.95;;;18.83;;
23632;SDS011;11993;48.748;9.166;2023-03-01T09:17:35;26.45;;;18.17;;
23632;SDS011;11993;48.748;9.166;2023-03-01T09:20:00;26.85;;;16.88;;
23632;SDS011;11993;48.748;9.166;2023-03-01T09:22:26;34.70;;;20.27;;
23632;SDS011;11993;48.748;9.166;2023-03-01T09:24:51;25.27;;;18.17;;
23632;SDS011;11993;48.748;9.166;2023-03-01T09:27:17;29.85;;;18.73;;
23632;SDS011;11993;48.748;9.166;2023-03-01T09:29:44;29.25;;;17.98;;
23632;SDS011;11993;48.748;9.166;2023-03-01T09:32:10;29.20;;;18.05;;
23632;SDS011;11993;48.748;9.166;2023-03-01T09:34:35;26.48;;;17.40;;
23632;SDS011;11993;48.748;9.166;2023-03-01T09:37:21;25.50;;;17.42;;
23632;SDS011;11993;48.748;9.166;2023-03-01T09:39:46;31.92;;;18.90;;
23632;SDS011;11993;48.748;9.166;2023-03-01T09:42:12;33.97;;;18.75;;
23632;SDS011;11993;48.748;9.166;2023-03-01T09:47:28;30.30;;;18.48;;
23632;SDS011;11993;48.748;9.166;2023-03-01T09:52:49;24.67;;;17.63;;
23632;SDS011;11993;48.748;9.166;2023-03-01T09:55:37;25.08;;;15.70;;
23632;SDS011;11993;48.748;9.166;2023-03-01T10:00:54;27.73;;;17.30;;
23632;SDS011;11993;48.748;9.166;2023-03-01T10:03:25;21.73;;;15.07;;
23632;SDS011;11993;48.748;9.166;2023-03-01T10:06:14;28.73;;;16.05;;
23632;SDS011;11993;48.748;9.166;2023-03-01T10:11:22;28.73;;;17.23;;
23632;SDS011;11993;48.748;9.166;2023-03-01T10:16:40;26.90;;;16.60;;
23632;SDS011;11993;48.748;9.166;2023-03-01T10:19:23;25.35;;;16.83;;
23632;SDS011;11993;48.748;9.166;2023-03-01T10:22:11;23.85;;;16.45;;
23632;SDS011;11993;48.748;9.166;2023-03-01T10:24:49;24.52;;;15.50;;
23632;SDS011;11993;48.748;9.166;2023-03-01T10:27:23;26.15;;;16.15;;
23632;SDS011;11993;48.748;9.166;2023-03-01T10:30:21;22.40;;;15.48;;
23632;SDS011;11993;48.748;9.166;2023-03-01T10:32:57;23.27;;;16.45;;
23632;SDS011;11993;48.748;9.166;2023-03-01T10:35:27;21.88;;;14.85;;
23632;SDS011;11993;48.748;9.166;2023-03-01T10:37:58;25.67;;;17.00;;
23632;SDS011;11993;48.748;9.166;2023-03-01T10:40:34;23.92;;;17.40;;
23632;SDS011;11993;48.748;9.166;2023-03-01T10:43:01;26.20;;;16.40;;
23632;SDS011;11993;48.748;9.166;2023-03-01T10:50:38;23.90;;;15.60;;
23632;SDS011;11993;48.748;9.166;2023-03-01T10:53:16;26.88;;;16.33;;
23632;SDS011;11993;48.748;9.166;2023-03-01T10:55:56;20.58;;;15.52;;
23632;SDS011;11993;48.748;9.166;2023-03-01T10:58:23;25.30;;;16.25;;
23632;SDS011;11993;48.748;9.166;2023-03-01T11:03:23;22.58;;;16.02;;
23632;SDS011;11993;48.748;9.166;2023-03-01T11:05:57;25.33;;;16.10;;
23632;SDS011;11993;48.748;9.166;2023-03-01T11:13:31;25.55;;;15.57;;
23632;SDS011;11993;48.748;9.166;2023-03-01T11:16:00;22.45;;;15.85;;
23632;SDS011;11993;48.748;9.166;2023-03-01T11:18:28;21.08;;;15.23;;
23632;SDS011;11993;48.748;9.166;2023-03-01T11:20:55;22.48;;;15.13;;
23632;SDS011;11993;48.748;9.166;2023-03-01T11:23:24;22.48;;;16.00;;
23632;SDS011;11993;48.748;9.166;2023-03-01T11:25:57;23.38;;;14.95;;
23632;SDS011;11993;48.748;9.166;2023-03-01T11:28:26;21.88;;;14.15;;
23632;SDS011;11993;48.748;9.166;2023-03-01T11:30:55;18.67;;;13.30;;
23632;SDS011;11993;48.748;9.166;2023-03-01T11:33:47;20.05;;;15.93;;
23632;SDS011;11993;48.748;9.166;2023-03-01T11:38:53;22.70;;;14.77;;
23632;SDS011;11993;48.748;9.166;2023-03-01T11:41:20;21.17;;;14.65;;
23632;SDS011;11993;48.748;9.166;2023-03-01T11:43:56;21.80;;;14.00;;
23632;SDS011;11993;48.748;9.166;2023-03-01T11:55:17;19.75;;;14.43;;
23632;SDS011;11993;48.748;9.166;2023-03-01T12:00:43;19.45;;;14.15;;
23632;SDS011;11993;48.748;9.166;2023-03-01T12:03:42;20.30;;;14.88;;
23632;SDS011;11993;48.748;9.166;2023-03-01T12:06:37;20.40;;;13.63;;
23632;SDS011;11993;48.748;9.166;2023-03-01T12:09:38;19.02;;;14.70;;
23632;SDS011;11993;48.748;9.166;2023-03-01T12:12:33;20.50;;;14.02;;
23632;SDS011;11993;48.748;9.166;2023-03-01T12:21:06;22.15;;;15.25;;
23632;SDS011;11993;48.748;9.166;2023-03-01T12:33:10;19.00;;;14.68;;
23632;SDS011;11993;48.748;9.166;2023-03-01T12:38:42;19.50;;;14.13;;
23632;SDS011;11993;48.748;9.166;2023-03-01T12:41:30;18.92;;;14.05;;
23632;SDS011;11993;48.748;9.166;2023-03-01T12:44:06;23.67;;;17.90;;
23632;SDS011;11993;48.748;9.166;2023-03-01T12:49:48;18.33;;;13.77;;
23632;SDS011;11993;48.748;9.166;2023-03-01T12:52:35;19.52;;;12.77;;
23632;SDS011;11993;48.748;9.166;2023-03-01T12:55:16;17.60;;;13.68;;
23632;SDS011;11993;48.748;9.166;2023-03-01T12:57:56;16.52;;;12.48;;
23632;SDS011;11993;48.748;9.166;2023-03-01T13:00:51;20.23;;;14.07;;
23632;SDS011;11993;48.748;9.166;2023-03-01T13:09:09;19.42;;;13.57;;
23632;SDS011;11993;48.748;9.166;2023-03-01T13:11:45;16.60;;;12.60;;
23632;SDS011;11993;48.748;9.166;2023-03-01T13:16:46;20.63;;;12.50;;
23632;SDS011;11993;48.748;9.166;2023-03-01T13:19:21;17.15;;;12.85;;
23632;SDS011;11993;48.748;9.166;2023-03-01T13:21:49;17.02;;;12.48;;
23632;SDS011;11993;48.748;9.166;2023-03-01T13:24:49;16.85;;;12.20;;
23632;SDS011;11993;48.748;9.166;2023-03-01T13:32:20;15.23;;;11.38;;
23632;SDS011;11993;48.748;9.166;2023-03-01T13:34:58;17.73;;;12.27;;
23632;SDS011;11993;48.748;9.166;2023-03-01T13:37:31;17.33;;;12.05;;
23632;SDS011;11993;48.748;9.166;2023-03-01T13:39:59;14.13;;;11.13;;
23632;SDS011;11993;48.748;9.166;2023-03-01T13:42:33;14.38;;;10.98;;
23632;SDS011;11993;48.748;9.166;2023-03-01T13:45:02;14.13;;;11.38;;
23632;SDS011;11993;48.748;9.166;2023-03-01T13:47:56;16.63;;;11.63;;
23632;SDS011;11993;48.748;9.166;2023-03-01T13:50:27;15.68;;;11.30;;
23632;SDS011;11993;48.748;9.166;2023-03-01T13:52:57;21.50;;;12.63;;
23632;SDS011;11993;48.748;9.166;2023-03-01T13:58:15;20.33;;;13.70;;
23632;SDS011;11993;48.748;9.166;2023-03-01T14:00:41;17.35;;;13.02;;
23632;SDS011;11993;48.748;9.166;2023-03-01T14:03:15;21.45;;;13.57;;
23632;SDS011;11993;48.748;9.166;2023-03-01T14:05:44;29.43;;;13.67;;
23632;SDS011;11993;48.748;9.166;2023-03-01T14:08:23;22.55;;;14.60;;
23632;SDS011;11993;48.748;9.166;2023-03-01T14:16:12;18.17;;;14.20;;
23632;SDS011;11993;48.748;9.166;2023-03-01T14:21:42;24.95;;;15.65;;
23632;SDS011;11993;48.748;9.166;2023-03-01T14:24:18;22.98;;;16.02;;
23632;SDS011;11993;48.748;9.166;2023-03-01T14:26:46;23.33;;;15.75;;
23632;SDS011;11993;48.748;9.166;2023-03-01T14:32:11;21.08;;;15.00;;
23632;SDS011;11993;48.748;9.166;2023-03-01T14:34:46;20.67;;;15.38;;
23632;SDS011;11993;48.748;9.166;2023-03-01T14:39:45;26.38;;;15.07;;
23632;SDS011;11993;48.748;9.166;2023-03-01T14:42:11;23.65;;;15.23;;
23632;SDS011;11993;48.748;9.166;2023-03-01T14:44:40;21.58;;;15.10;;
23632;SDS011;11993;48.748;9.166;2023-03-01T14:47:15;22.23;;;15.52;;
23632;SDS011;11993;48.748;9.166;2023-03-01T14:49:48;22.65;;;16.52;;
23632;SDS011;11993;48.748;9.166;2023-03-01T14:52:22;22.52;;;15.25;;
23632;SDS011;11993;48.748;9.166;2023-03-01T14:54:53;21.90;;;15.32;;
23632;SDS011;11993;48.748;9.166;2023-03-01T14:57:26;21.95;;;16.02;;
23632;SDS011;11993;48.748;9.166;2023-03-01T14:59:55;22.98;;;14.98;;
23632;SDS011;11993;48.748;9.166;2023-03-01T15:02:25;28.23;;;16.10;;
23632;SDS011;11993;48.748;9.166;2023-03-01T15:04:54;25.45;;;16.65;;
23632;SDS011;11993;48.748;9.166;2023-03-01T15:07:26;20.52;;;14.98;;
23632;SDS011;11993;48.748;9.166;2023-03-01T15:09:56;22.55;;;16.90;;
23632;SDS011;11993;48.748;9.166;2023-03-01T15:14:55;24.23;;;15.73;;
23632;SDS011;11993;48.748;9.166;2023-03-01T15:17:34;22.92;;;15.63;;
23632;SDS011;11993;48.748;9.166;2023-03-01T15:20:04;24.35;;;15.55;;
23632;SDS011;11993;48.748;9.166;2023-03-01T15:22:32;22.95;;;16.27;;
23632;SDS011;11993;48.748;9.166;2023-03-01T15:24:57;22.90;;;15.63;;
23632;SDS011;11993;48.748;9.166;2023-03-01T15:27:24;21.50;;;14.85;;
23632;SDS011;11993;48.748;9.166;2023-03-01T15:29:55;32.63;;;20.65;;
23632;SDS011;11993;48.748;9.166;2023-03-01T15:32:27;38.88;;;25.80;;
23632;SDS011;11993;48.748;9.166;2023-03-01T15:34:55;22.42;;;15.98;;
23632;SDS011;11993;48.748;9.166;2023-03-01T15:37:43;21.55;;;14.93;;
23632;SDS011;11993;48.748;9.166;2023-03-01T15:42:58;23.90;;;16.48;;
23632;SDS011;11993;48.748;9.166;2023-03-01T15:45:26;24.52;;;16.50;;
23632;SDS011;11993;48.748;9.166;2023-03-01T15:47:54;24.27;;;15.68;;
23632;SDS011;11993;48.748;9.166;2023-03-01T15:50:29;22.17;;;15.05;;
23632;SDS011;11993;48.748;9.166;2023-03-01T15:52:55;22.20;;;16.42;;
23632;SDS011;11993;48.748;9.166;2023-03-01T15:55:24;35.67;;;17.00;;
23632;SDS011;11993;48.748;9.166;2023-03-01T15:57:59;21.48;;;14.63;;
23632;SDS011;11993;48.748;9.166;2023-03-01T16:00:28;24.60;;;16.00;;
23632;SDS011;11993;48.748;9.166;2023-03-01T16:02:54;22.63;;;15.75;;
23632;SDS011;11993;48.748;9.166;2023-03-01T16:05:24;23.83;;;16.27;;
23632;SDS011;11993;48.748;9.166;2023-03-01T16:07:52;24.05;;;16.17;;
23632;SDS011;11993;48.748;9.166;2023-03-01T16:10:19;23.08;;;16.00;;
23632;SDS011;11993;48.748;9.166;2023-03-01T16:12:44;22.17;;;15.85;;
23632;SDS011;11993;48.748;9.166;2023-03-01T16:15:16;24.85;;;15.48;;
23632;SDS011;11993;48.748;9.166;2023-03-01T16:17:44;24.42;;;16.35;;
23632;SDS011;11993;48.748;9.166;2023-03-01T16:20:13;26.58;;;16.45;;
23632;SDS011;11993;48.748;9.166;2023-03-01T16:22:42;24.85;;;15.98;;
23632;SDS011;11993;48.748;9.166;2023-03-01T16:25:12;28.40;;;15.90;;